createdAt,value
2023-01-10T00:01:08.887Z,100320.22
2023-01-10T00:04:11.601Z,100323.63
2023-01-10T00:07:14.311Z,100322.69
2023-01-10T00:10:17.130Z,100322.41
2023-01-10T00:13:24.787Z,100332.78
2023-01-10T00:16:28.815Z,100340.97
2023-01-10T00:19:31.898Z,100346.47
2023-01-10T00:22:34.515Z,100351.25
2023-01-10T00:25:37.355Z,100359.59
2023-01-10T00:28:40.120Z,100352.03
2023-01-10T00:31:44.050Z,100360.13
2023-01-10T00:34:46.710Z,100359.06
2023-01-10T00:37:49.453Z,100364.72
2023-01-10T00:40:52.161Z,100374.38
2023-01-10T00:43:56.720Z,100372.59
2023-01-10T00:47:00.691Z,100376.00
2023-01-10T00:50:04.515Z,100376.94
2023-01-10T00:53:07.206Z,100388.41
2023-01-10T00:56:09.761Z,100394.69
2023-01-10T00:59:12.340Z,100395.47
2023-01-10T01:02:16.375Z,100394.22
2023-01-10T01:05:19.859Z,100409.31
2023-01-10T01:08:22.446Z,100416.38
2023-01-10T01:11:25.030Z,100431.50
2023-01-10T01:14:27.636Z,100433.19
2023-01-10T01:17:31.563Z,100434.16
2023-01-10T01:20:34.181Z,100442.41
2023-01-10T01:23:37.187Z,100453.34
2023-01-10T01:26:41.956Z,100462.19
2023-01-10T01:29:44.560Z,100478.56
2023-01-10T01:32:48.586Z,100486.03
2023-01-10T01:35:51.347Z,100488.19
2023-01-10T01:38:53.921Z,100491.44
2023-01-10T01:42:00.235Z,100508.78
2023-01-10T01:45:35.840Z,100520.72
2023-01-10T01:48:42.424Z,100527.59
2023-01-10T01:51:46.528Z,100523.81
2023-01-10T01:54:49.430Z,100531.88
2023-01-10T01:57:53.818Z,100535.94
2023-01-10T02:00:58.468Z,100529.50
2023-01-10T02:04:09.690Z,100539.06
2023-01-10T02:07:13.698Z,100545.63
2023-01-10T02:10:20.952Z,100550.13
2023-01-10T02:13:26.672Z,100560.28
2023-01-10T02:16:29.267Z,100561.81
2023-01-10T02:19:44.217Z,100566.84
2023-01-10T02:23:15.010Z,100573.56
2023-01-10T02:26:59.907Z,100575.22
2023-01-10T02:30:38.394Z,100580.63
2023-01-10T02:33:50.438Z,100586.28
2023-01-10T02:37:01.163Z,100591.50
2023-01-10T02:40:09.426Z,100604.31
2023-01-10T02:43:16.147Z,100594.50
2023-01-10T02:46:25.027Z,100607.88
2023-01-10T02:49:29.074Z,100607.94
2023-01-10T02:52:32.315Z,100611.41
2023-01-10T02:55:48.423Z,100616.69
2023-01-10T02:59:07.386Z,100625.00
2023-01-10T03:02:24.724Z,100621.94
2023-01-10T03:05:41.136Z,100623.06
2023-01-10T03:08:51.800Z,100625.38
2023-01-10T03:12:02.503Z,100629.28
2023-01-10T03:15:07.443Z,100632.69
2023-01-10T03:18:14.658Z,100636.53
2023-01-10T03:21:21.920Z,100644.34
2023-01-10T03:24:29.719Z,100641.44
2023-01-10T03:27:39.805Z,100645.31
2023-01-10T03:30:47.998Z,100663.03
2023-01-10T03:33:51.170Z,100666.91
2023-01-10T03:37:04.066Z,100663.16
2023-01-10T03:40:15.845Z,100664.34
2023-01-10T03:43:40.114Z,100661.81
2023-01-10T03:46:48.227Z,100677.28
2023-01-10T03:49:57.436Z,100680.34
2023-01-10T03:53:01.536Z,100688.84
2023-01-10T03:56:04.312Z,100700.03
2023-01-10T03:59:06.900Z,100699.00
2023-01-10T04:02:09.509Z,100706.13
2023-01-10T04:05:12.632Z,100716.94
2023-01-10T04:08:16.608Z,100724.97
2023-01-10T04:11:19.207Z,100731.41
2023-01-10T04:14:21.790Z,100740.88
2023-01-10T04:17:24.384Z,100742.81
2023-01-10T04:20:27.464Z,100747.75
2023-01-10T04:23:31.403Z,100743.19
2023-01-10T04:26:33.999Z,100752.84
2023-01-10T04:29:36.587Z,100764.69
2023-01-10T04:32:39.186Z,100769.19
2023-01-10T04:35:41.778Z,100768.03
2023-01-10T04:38:45.747Z,100772.28
2023-01-10T04:41:48.336Z,100780.16
2023-01-10T04:44:50.989Z,100783.53
2023-01-10T04:47:56.056Z,100792.41
2023-01-10T04:50:58.656Z,100808.38
2023-01-10T04:54:02.747Z,100814.22
2023-01-10T04:57:06.528Z,100814.06
2023-01-10T05:00:10.338Z,100822.28
2023-01-10T05:03:13.003Z,100829.94
2023-01-10T05:06:15.849Z,100823.19
2023-01-10T05:09:19.785Z,100827.25
2023-01-10T05:12:22.363Z,100820.97
2023-01-10T05:15:25.443Z,100840.66
2023-01-10T05:18:28.648Z,100839.44
2023-01-10T05:21:31.235Z,100848.03
2023-01-10T05:24:35.167Z,100849.75
2023-01-10T05:27:37.761Z,100855.53
2023-01-10T05:30:40.336Z,100866.78
2023-01-10T05:33:45.598Z,100869.47
2023-01-10T05:36:48.183Z,100881.81
2023-01-10T05:39:52.116Z,100887.50
2023-01-10T05:42:54.676Z,100893.63
2023-01-10T05:45:57.281Z,100899.22
2023-01-10T05:48:59.850Z,100900.44
2023-01-10T05:52:02.428Z,100901.81
2023-01-10T05:55:06.882Z,100909.09
2023-01-10T05:58:11.081Z,100913.09
2023-01-10T06:01:13.830Z,100917.94
2023-01-10T06:04:16.557Z,100925.66
2023-01-10T06:07:19.169Z,100927.56
2023-01-10T06:10:23.124Z,100941.19
2023-01-10T06:13:25.845Z,100948.13
2023-01-10T06:16:28.443Z,100943.72
2023-01-10T06:19:31.044Z,100946.44
2023-01-10T06:22:33.698Z,100949.72
2023-01-10T06:25:40.577Z,100961.31
2023-01-10T06:28:43.325Z,100960.44
2023-01-10T06:31:45.899Z,100967.59
2023-01-10T06:34:48.476Z,100983.66
2023-01-10T06:37:51.471Z,100975.53
2023-01-10T06:40:55.469Z,100979.72
2023-01-10T06:43:58.031Z,100982.84
2023-01-10T06:47:00.619Z,100985.13
2023-01-10T06:50:03.244Z,100996.81
2023-01-10T06:53:06.308Z,101001.97
2023-01-10T06:56:10.912Z,101002.97
2023-01-10T06:59:13.799Z,101013.13
2023-01-10T07:02:16.470Z,101011.84
2023-01-10T07:05:19.088Z,101021.19
2023-01-10T07:08:21.636Z,101028.25
2023-01-10T07:11:25.571Z,101036.47
2023-01-10T07:14:28.170Z,101041.91
2023-01-10T07:17:31.176Z,101047.91
2023-01-10T07:20:33.754Z,101043.38
2023-01-10T07:23:36.682Z,101044.50
2023-01-10T07:26:40.615Z,101045.38
2023-01-10T07:29:43.211Z,101050.84
2023-01-10T07:32:45.789Z,101057.00
2023-01-10T07:35:48.366Z,101054.50
2023-01-10T07:38:50.978Z,101056.03
2023-01-10T07:41:55.310Z,101064.41
2023-01-10T07:44:57.900Z,101072.16
2023-01-10T07:48:01.874Z,101079.47
2023-01-10T07:51:05.521Z,101078.25
2023-01-10T07:54:08.092Z,101078.72
2023-01-10T07:57:12.039Z,101080.19
2023-01-10T08:00:18.618Z,101081.81
2023-01-10T08:03:22.298Z,101072.59
2023-01-10T08:06:24.969Z,101078.56
2023-01-10T08:09:27.532Z,101071.47
2023-01-10T08:12:31.628Z,101079.84
2023-01-10T08:15:34.225Z,101083.47
2023-01-10T08:18:38.524Z,101086.44
2023-01-10T08:21:41.099Z,101084.22
2023-01-10T08:24:43.745Z,101092.91
2023-01-10T08:27:47.672Z,101098.19
2023-01-10T08:30:55.315Z,101113.75
2023-01-10T08:33:58.049Z,101103.34
2023-01-10T08:37:00.661Z,101107.88
2023-01-10T08:40:03.285Z,101117.53
2023-01-10T08:43:08.908Z,101112.53
2023-01-10T08:46:11.595Z,101118.47
2023-01-10T08:49:14.391Z,101123.75
2023-01-10T08:52:17.236Z,101126.75
2023-01-10T08:55:20.544Z,101126.59
2023-01-10T08:58:24.503Z,101143.31
2023-01-10T09:01:27.169Z,101150.25
2023-01-10T09:04:32.727Z,101154.53
2023-01-10T09:07:35.542Z,101155.31
2023-01-10T09:10:38.129Z,101159.66
2023-01-10T09:13:42.263Z,101150.41
2023-01-10T09:16:46.148Z,101138.28
2023-01-10T09:19:48.780Z,101129.50
2023-01-10T09:22:51.380Z,101127.16
2023-01-10T09:25:55.914Z,101123.78
2023-01-10T09:28:59.846Z,101124.31
2023-01-10T09:32:02.475Z,101127.25
2023-01-10T09:35:06.010Z,101141.47
2023-01-10T09:38:11.856Z,101151.16
2023-01-10T09:41:33.663Z,101148.38
2023-01-10T09:44:50.436Z,101155.06
2023-01-10T09:47:56.954Z,101166.97
2023-01-10T09:51:17.022Z,101193.09
2023-01-10T09:54:26.225Z,101194.03
2023-01-10T09:57:28.830Z,101195.72
2023-01-10T10:00:40.423Z,101214.34
2023-01-10T10:03:51.524Z,101218.94
2023-01-10T10:06:54.958Z,101211.22
2023-01-10T10:09:57.721Z,101209.88
2023-01-10T10:13:16.968Z,101200.19
2023-01-10T10:16:43.557Z,101208.72
2023-01-10T10:19:59.053Z,101208.69
2023-01-10T10:23:28.182Z,101212.31
2023-01-10T10:26:35.043Z,101204.06
2023-01-10T10:30:09.934Z,101204.19
2023-01-10T10:33:38.666Z,101203.75
2023-01-10T10:36:46.772Z,101202.97
2023-01-10T10:39:53.459Z,101198.78
2023-01-10T10:42:58.022Z,101197.72
2023-01-10T10:46:04.517Z,101191.25
2023-01-10T10:49:18.867Z,101196.56
2023-01-10T10:52:25.659Z,101200.44
2023-01-10T10:55:31.790Z,101208.38
2023-01-10T10:58:34.692Z,101214.38
2023-01-10T11:01:37.387Z,101209.81
2023-01-10T11:04:41.489Z,101216.06
2023-01-10T11:07:44.752Z,101218.34
2023-01-10T11:10:50.599Z,101209.09
2023-01-10T11:13:56.710Z,101217.22
2023-01-10T11:17:19.919Z,101211.69
2023-01-10T11:20:24.020Z,101218.00
2023-01-10T11:23:39.167Z,101226.72
2023-01-10T11:26:41.856Z,101226.38
2023-01-10T11:29:47.678Z,101228.09
2023-01-10T11:32:54.283Z,101234.88
2023-01-10T11:36:04.657Z,101235.53
2023-01-10T11:39:07.234Z,101234.75
2023-01-10T11:42:29.608Z,101234.75
2023-01-10T11:45:34.271Z,101227.56
2023-01-10T11:49:04.996Z,101231.94
2023-01-10T11:52:31.380Z,101230.94
2023-01-10T11:55:37.341Z,101229.50
2023-01-10T11:58:42.651Z,101224.81
2023-01-10T12:01:49.163Z,101227.31
2023-01-10T12:04:53.787Z,101225.13
2023-01-10T12:07:59.587Z,101226.72
2023-01-10T12:11:05.719Z,101217.59
2023-01-10T12:14:22.471Z,101226.03
2023-01-10T12:17:28.327Z,101222.47
2023-01-10T12:20:32.776Z,101220.00
2023-01-10T12:23:41.399Z,101224.72
2023-01-10T12:26:44.822Z,101215.47
2023-01-10T12:29:56.482Z,101221.91
2023-01-10T12:33:01.867Z,101217.19
2023-01-10T12:36:14.650Z,101224.28
2023-01-10T12:39:23.467Z,101225.22
2023-01-10T12:42:57.445Z,101230.31
2023-01-10T12:46:25.161Z,101226.31
2023-01-10T12:49:36.343Z,101226.13
2023-01-10T12:52:47.353Z,101213.47
2023-01-10T12:55:56.483Z,101227.16
2023-01-10T12:59:05.013Z,101220.78
2023-01-10T13:02:16.154Z,101227.22
2023-01-10T13:05:21.923Z,101224.34
2023-01-10T13:08:27.615Z,101222.13
2023-01-10T13:11:41.351Z,101230.22
2023-01-10T13:14:51.364Z,101232.25
2023-01-10T13:17:57.460Z,101231.38
2023-01-10T13:21:13.186Z,101226.97
2023-01-10T13:24:22.248Z,101223.91
2023-01-10T13:27:30.248Z,101229.44
2023-01-10T13:30:37.222Z,101227.22
2023-01-10T13:33:54.251Z,101226.44
2023-01-10T13:36:59.618Z,101225.41
2023-01-10T13:40:04.346Z,101215.03
2023-01-10T13:44:00.999Z,101211.03
2023-01-10T13:47:03.599Z,101216.19
2023-01-10T13:50:42.364Z,101226.00
2023-01-10T13:54:06.210Z,101236.25
2023-01-10T13:57:42.344Z,101226.53
2023-01-10T14:01:09.997Z,101229.72
2023-01-10T14:04:20.758Z,101231.88
2023-01-10T14:07:28.204Z,101232.50
2023-01-10T14:10:33.492Z,101240.06
2023-01-10T14:13:37.567Z,101236.03
2023-01-10T14:16:42.820Z,101240.66
2023-01-10T14:19:47.743Z,101238.69
2023-01-10T14:23:03.462Z,101241.50
2023-01-10T14:26:06.560Z,101238.88
2023-01-10T14:29:12.782Z,101237.41
2023-01-10T14:32:28.748Z,101239.19
2023-01-10T14:35:37.315Z,101224.94
2023-01-10T14:38:40.579Z,101230.63
2023-01-10T14:41:45.924Z,101228.28
2023-01-10T14:44:55.058Z,101226.50
2023-01-10T14:47:59.079Z,101212.50
2023-01-10T14:51:18.304Z,101209.38
2023-01-10T14:54:23.376Z,101208.03
2023-01-10T14:57:26.021Z,101215.00
2023-01-10T15:00:31.757Z,101206.19
2023-01-10T15:03:35.878Z,101205.06
2023-01-10T15:06:52.784Z,101204.59
2023-01-10T15:09:57.877Z,101198.72
2023-01-10T15:13:03.975Z,101205.41
2023-01-10T15:16:07.791Z,101191.56
2023-01-10T15:19:16.114Z,101185.47
2023-01-10T15:22:32.217Z,101197.63
2023-01-10T15:25:38.793Z,101190.34
2023-01-10T15:28:41.661Z,101200.56
2023-01-10T15:31:44.491Z,101204.94
2023-01-10T15:34:52.568Z,101194.56
2023-01-10T15:37:58.279Z,101197.72
2023-01-10T15:41:03.151Z,101195.66
2023-01-10T15:44:24.286Z,101207.50
2023-01-10T15:47:38.635Z,101193.75
2023-01-10T15:50:57.957Z,101194.75
2023-01-10T15:54:05.846Z,101188.28
2023-01-10T15:57:23.327Z,101182.19
2023-01-10T16:00:26.056Z,101185.34
2023-01-10T16:03:33.145Z,101182.19
2023-01-10T16:06:38.297Z,101182.31
2023-01-10T16:09:41.697Z,101178.75
2023-01-10T16:13:02.493Z,101184.72
2023-01-10T16:16:22.436Z,101175.59
2023-01-10T16:19:25.226Z,101187.25
2023-01-10T16:22:29.222Z,101181.09
2023-01-10T16:25:34.712Z,101189.16
2023-01-10T16:28:37.944Z,101182.31
2023-01-10T16:31:40.642Z,101179.78
2023-01-10T16:34:43.866Z,101162.75
2023-01-10T16:37:48.506Z,101159.97
2023-01-10T16:40:53.897Z,101158.19
2023-01-10T16:43:55.537Z,101163.47
2023-01-10T16:46:58.568Z,101153.28
2023-01-10T16:50:01.130Z,101145.09
2023-01-10T16:53:06.381Z,101136.78
2023-01-10T16:56:13.686Z,101136.41
2023-01-10T16:59:17.978Z,101130.44
2023-01-10T17:02:21.753Z,101127.25
2023-01-10T17:05:24.504Z,101127.31
2023-01-10T17:08:28.436Z,101124.72
2023-01-10T17:11:34.897Z,101117.19
2023-01-10T17:14:38.554Z,101124.38
2023-01-10T17:17:44.269Z,101111.88
2023-01-10T17:20:47.058Z,101107.16
2023-01-10T17:23:51.481Z,101102.34
2023-01-10T17:26:54.054Z,101090.28
2023-01-10T17:29:56.644Z,101091.94
2023-01-10T17:32:59.353Z,101084.38
2023-01-10T17:36:02.232Z,101076.50
2023-01-10T17:39:06.312Z,101071.81
2023-01-10T17:42:08.887Z,101063.03
2023-01-10T17:45:12.193Z,101050.50
2023-01-10T17:48:16.936Z,101044.41
2023-01-10T17:51:19.526Z,101045.78
2023-01-10T17:54:23.470Z,101036.28
2023-01-10T17:57:26.089Z,101043.88
2023-01-10T18:00:28.727Z,101041.72
2023-01-10T18:03:31.404Z,101031.00
2023-01-10T18:06:33.999Z,101037.38
2023-01-10T18:09:37.947Z,101032.47
2023-01-10T18:12:40.550Z,101024.38
2023-01-10T18:15:44.825Z,101016.78
2023-01-10T18:18:47.444Z,101016.84
2023-01-10T18:21:50.000Z,101013.13
2023-01-10T18:24:54.971Z,101004.31
2023-01-10T18:27:57.548Z,101000.50
2023-01-10T18:31:03.691Z,101000.22
2023-01-10T18:34:06.289Z,101004.78
2023-01-10T18:37:09.081Z,100991.63
2023-01-10T18:40:14.650Z,100987.75
2023-01-10T18:43:17.249Z,100977.34
2023-01-10T18:46:21.947Z,100974.72
2023-01-10T18:49:24.612Z,100974.03
2023-01-10T18:52:27.199Z,100968.84
2023-01-10T18:55:31.255Z,100964.88
2023-01-10T18:58:36.052Z,100966.03
2023-01-10T19:01:38.738Z,100966.72
2023-01-10T19:04:41.524Z,100969.94
2023-01-10T19:07:44.097Z,100960.97
2023-01-10T19:11:11.961Z,100951.78
2023-01-10T19:14:10.873Z,100952.88
2023-01-10T19:17:13.455Z,100959.25
2023-01-10T19:20:16.386Z,100953.41
2023-01-10T19:23:19.258Z,100942.56
2023-01-10T19:26:24.051Z,100945.38
2023-01-10T19:29:26.656Z,100939.50
2023-01-10T19:32:29.336Z,100938.88
2023-01-10T19:35:35.906Z,100928.41
2023-01-10T19:38:38.685Z,100921.19
2023-01-10T19:41:43.055Z,100925.88
2023-01-10T19:44:45.706Z,100926.59
2023-01-10T19:47:48.979Z,100920.03
2023-01-10T19:50:51.577Z,100921.03
2023-01-10T19:53:54.181Z,100908.34
2023-01-10T19:56:58.537Z,100921.69
2023-01-10T20:00:01.202Z,100919.47
2023-01-10T20:03:05.226Z,100910.72
2023-01-10T20:06:09.079Z,100911.59
2023-01-10T20:09:13.410Z,100901.75
2023-01-10T20:12:17.331Z,100899.31
2023-01-10T20:15:19.904Z,100896.22
2023-01-10T20:18:22.517Z,100896.44
2023-01-10T20:21:25.382Z,100887.28
2023-01-10T20:24:28.463Z,100891.63
2023-01-10T20:27:32.412Z,100874.41
2023-01-10T20:30:36.879Z,100878.03
2023-01-10T20:33:39.463Z,100864.72
2023-01-10T20:36:42.051Z,100858.59
2023-01-10T20:39:44.672Z,100856.16
2023-01-10T20:42:51.707Z,100841.41
2023-01-10T20:45:54.555Z,100851.00
2023-01-10T20:49:00.778Z,100847.78
2023-01-10T20:52:04.921Z,100829.31
2023-01-10T20:55:08.193Z,100821.47
2023-01-10T20:58:12.124Z,100815.69
2023-01-10T21:01:24.818Z,100806.78
2023-01-10T21:04:27.731Z,100797.47
2023-01-10T21:07:30.310Z,100791.16
2023-01-10T21:10:32.885Z,100774.97
2023-01-10T21:13:36.827Z,100759.00
2023-01-10T21:16:39.432Z,100758.56
2023-01-10T21:19:42.021Z,100730.66
2023-01-10T21:22:44.592Z,100720.50
2023-01-10T21:25:47.478Z,100709.38
2023-01-10T21:28:51.391Z,100708.69
2023-01-10T21:31:54.110Z,100702.78
2023-01-10T21:34:56.755Z,100689.91
2023-01-10T21:37:59.541Z,100686.97
2023-01-10T21:41:07.217Z,100683.41
2023-01-10T21:44:11.328Z,100671.75
2023-01-10T21:47:13.943Z,100671.59
2023-01-10T21:50:17.120Z,100663.69
2023-01-10T21:53:19.684Z,100651.94
2023-01-10T21:56:22.284Z,100644.19
2023-01-10T21:59:26.457Z,100637.31
2023-01-10T22:02:30.633Z,100618.00
2023-01-10T22:05:33.329Z,100623.50
2023-01-10T22:08:35.963Z,100625.22
2023-01-10T22:11:38.582Z,100619.56
2023-01-10T22:14:42.519Z,100634.22
2023-01-10T22:17:45.143Z,100621.84
2023-01-10T22:20:47.741Z,100635.88
2023-01-10T22:23:50.314Z,100617.91
2023-01-10T22:26:54.496Z,100627.69
2023-01-10T22:29:58.434Z,100623.50
2023-01-10T22:33:01.429Z,100613.25
2023-01-10T22:36:05.368Z,100614.44
2023-01-10T22:39:08.439Z,100597.28
2023-01-10T22:42:11.004Z,100595.34
2023-01-10T22:45:15.110Z,100584.94
2023-01-10T22:48:17.694Z,100578.13
2023-01-10T22:51:21.878Z,100569.22
2023-01-10T22:54:24.475Z,100550.19
2023-01-10T22:57:28.757Z,100541.75
2023-01-10T23:00:33.393Z,100551.09
2023-01-10T23:03:36.201Z,100532.72
2023-01-10T23:06:38.884Z,100545.34
2023-01-10T23:09:41.467Z,100531.19
2023-01-10T23:12:44.060Z,100525.13
2023-01-10T23:15:56.079Z,100530.28
2023-01-10T23:18:59.727Z,100529.19
2023-01-10T23:22:02.312Z,100523.50
2023-01-10T23:25:05.546Z,100517.38
2023-01-10T23:28:08.135Z,100495.28
2023-01-10T23:31:12.247Z,100499.78
2023-01-10T23:34:14.819Z,100488.75
2023-01-10T23:37:17.525Z,100477.63
2023-01-10T23:40:20.360Z,100481.72
2023-01-10T23:43:23.183Z,100483.91
2023-01-10T23:46:27.171Z,100481.03
2023-01-10T23:49:29.759Z,100487.06
2023-01-10T23:52:32.341Z,100484.72
2023-01-10T23:55:35.205Z,100482.13
2023-01-10T23:58:37.976Z,100481.06
